Eugene, Oregon
Current Conditions -  °F | °C
As of 9:54 PM on Thursday 30 Oct 2014 (Local Time) from KEUG Reporting Station
Light Rain Light Rain  
Wind Chill: 58°   Ceiling: 4900
Heat Index: 58°   Visibility: 7mi
Dew Point: 56°   Wind: 7mph
Humidity: 93%   Direction: 140°SE
Pressure: 29.8"   Gusts: NA
Location:  44.05°N, 123.08°W
Report Text: KEUG 310454Z 14006KT 7SM -RA BKN049 OVC060 14/13 A2980 RMK AO2 SLP090 P0001 T01440133
Loading
Personal Weather Stations






























Interactive Weather Map
Tropical Storm Tracking
New forecast layout! Learn more

10-Day Weather Forecast

Advertisements
Track Severe Weather on mobile